Time;durP1;ratioP1;P1;durP2;ratioP2;P2;SDS_P1;SDS_P2;PMS_P1;PMS_P2;Temp;Humidity;BMP_temperature;BMP_pressure;BME280_temperature;BME280_humidity;BME280_pressure;Samples;Min_cycle;Max_cycle;Signal;HPM_P1;HPM_P2
2022/06/28 00:00:27;;;;;;;4.17;1.40;;;16.10;99.90;;;;;;5083650;28;20298;-77
2022/06/28 00:02:52;;;;;;;2.00;1.30;;;16.20;99.90;;;;;;5082057;28;20196;-79
2022/06/28 00:05:18;;;;;;;2.33;0.90;;;16.20;99.90;;;;;;5081480;28;20580;-76
2022/06/28 00:07:44;;;;;;;2.17;0.80;;;16.20;99.90;;;;;;5078496;28;20196;-76
2022/06/28 00:10:11;;;;;;;2.80;1.10;;;16.20;99.90;;;;;;5085900;28;20275;-76
2022/06/28 00:12:38;;;;;;;2.87;0.90;;;16.20;99.90;;;;;;5086838;28;20206;-74
2022/06/28 00:17:51;;;;;;;9.37;1.30;;;16.20;99.90;;;;;;5085453;28;20434;-72
2022/06/28 00:20:17;;;;;;;4.43;1.37;;;16.10;99.90;;;;;;5085762;28;20530;-77
2022/06/28 00:22:42;;;;;;;2.77;1.03;;;16.20;99.90;;;;;;5083527;28;21041;-79
2022/06/28 00:25:08;;;;;;;3.57;1.10;;;16.10;99.90;;;;;;5085923;28;20192;-77
2022/06/28 00:27:34;;;;;;;2.03;1.00;;;16.20;99.90;;;;;;5084730;28;20314;-78
2022/06/28 00:30:00;;;;;;;2.07;1.10;;;16.20;99.90;;;;;;5085834;28;20518;-78
2022/06/28 00:32:26;;;;;;;2.30;1.23;;;16.10;99.90;;;;;;5081194;28;20245;-78
2022/06/28 00:34:52;;;;;;;2.37;1.00;;;16.10;99.90;;;;;;5083970;28;20698;-80
2022/06/28 00:37:18;;;;;;;2.50;1.40;;;16.10;99.90;;;;;;5085761;28;20297;-77
2022/06/28 00:39:43;;;;;;;2.93;1.33;;;16.10;99.90;;;;;;5084841;28;20237;-77
2022/06/28 00:42:09;;;;;;;2.90;1.63;;;16.10;99.90;;;;;;5086315;28;20205;-78
2022/06/28 00:44:36;;;;;;;4.80;1.10;;;16.10;99.90;;;;;;5087391;28;20195;-78
2022/06/28 00:47:03;;;;;;;2.13;1.00;;;16.10;99.90;;;;;;5084465;28;20441;-75
2022/06/28 00:49:30;;;;;;;2.13;1.10;;;16.00;99.90;;;;;;5084419;28;20470;-78
2022/06/28 00:51:58;;;;;;;2.03;1.10;;;16.00;99.90;;;;;;5075300;28;20511;-76
2022/06/28 00:54:25;;;;;;;2.00;0.97;;;15.90;99.90;;;;;;5077508;28;20542;-77
2022/06/28 00:56:51;;;;;;;2.60;1.17;;;15.90;99.90;;;;;;5074557;28;20462;-80
2022/06/28 00:59:17;;;;;;;2.13;1.17;;;15.90;99.90;;;;;;5084901;28;20598;-79
2022/06/28 01:01:42;;;;;;;4.00;1.27;;;15.80;99.90;;;;;;5084317;28;20991;-77
2022/06/28 01:04:08;;;;;;;1.77;0.80;;;15.80;99.90;;;;;;5085222;28;20208;-76
2022/06/28 01:06:35;;;;;;;2.00;0.83;;;15.80;99.90;;;;;;5077255;28;20183;-73
2022/06/28 01:09:01;;;;;;;2.63;1.40;;;15.80;99.90;;;;;;5078372;28;20232;-77
2022/06/28 01:11:28;;;;;;;4.23;1.07;;;15.80;99.90;;;;;;5083065;28;20514;-76
2022/06/28 01:14:08;;;;;;;1.90;0.93;;;15.80;99.90;;;;;;5086631;28;20176;-77
2022/06/28 01:16:35;;;;;;;1.93;0.90;;;15.80;99.90;;;;;;5086289;28;20438;-77
2022/06/28 01:19:00;;;;;;;8.40;1.53;;;15.80;99.90;;;;;;5082639;28;20472;-77
2022/06/28 01:21:30;;;;;;;2.37;1.10;;;15.80;99.90;;;;;;5084559;28;20470;-77
2022/06/28 01:23:56;;;;;;;1.90;1.00;;;15.80;99.90;;;;;;5083441;28;20184;-77
2022/06/28 01:26:23;;;;;;;2.27;1.23;;;15.80;99.90;;;;;;5090076;28;20554;-76
2022/06/28 01:28:50;;;;;;;8.33;1.43;;;15.70;99.90;;;;;;5106836;28;20499;-79
2022/06/28 01:31:20;;;;;;;3.97;1.80;;;15.70;99.90;;;;;;5106548;28;20536;-79
2022/06/28 01:33:47;;;;;;;10.00;1.77;;;15.70;99.90;;;;;;5112485;28;20468;-81
2022/06/28 01:36:12;;;;;;;7.10;1.00;;;15.70;99.90;;;;;;5112754;28;20454;-82
2022/06/28 01:38:39;;;;;;;1.73;0.93;;;15.70;99.90;;;;;;5108213;28;20509;-80
2022/06/28 01:41:07;;;;;;;3.93;1.37;;;15.70;99.90;;;;;;5085404;28;20684;-78
2022/06/28 01:43:35;;;;;;;5.80;1.40;;;15.70;99.90;;;;;;5084279;28;20446;-75
2022/06/28 01:46:03;;;;;;;2.73;1.40;;;15.70;99.90;;;;;;5078305;28;20438;-77
2022/06/28 01:48:31;;;;;;;5.20;1.23;;;15.60;99.90;;;;;;5074992;28;20457;-77
2022/06/28 01:50:56;;;;;;;3.33;1.50;;;15.60;99.90;;;;;;5078676;28;20442;-77
2022/06/28 01:53:22;;;;;;;2.53;1.30;;;15.50;99.90;;;;;;5080165;28;20527;-77
2022/06/28 01:55:48;;;;;;;5.10;1.50;;;15.50;99.90;;;;;;5074047;28;20287;-78
2022/06/28 01:58:14;;;;;;;5.63;1.00;;;15.50;99.90;;;;;;5077784;28;20188;-78
2022/06/28 02:00:40;;;;;;;5.73;1.93;;;15.50;99.90;;;;;;5070778;28;20594;-77
2022/06/28 02:03:06;;;;;;;16.03;1.90;;;15.40;99.90;;;;;;5075329;28;20828;-81
2022/06/28 02:05:33;;;;;;;2.63;1.23;;;15.40;99.90;;;;;;5077476;28;20422;-79
2022/06/28 02:07:58;;;;;;;4.07;1.60;;;15.30;99.90;;;;;;5077997;28;20180;-78
2022/06/28 02:10:24;;;;;;;2.97;1.50;;;15.40;99.90;;;;;;5079543;28;20441;-78
2022/06/28 02:12:50;;;;;;;3.00;1.20;;;15.30;99.90;;;;;;5082511;28;20672;-76
2022/06/28 02:15:16;;;;;;;2.33;1.40;;;15.20;99.90;;;;;;5082822;28;20450;-78
2022/06/28 02:17:43;;;;;;;10.53;1.23;;;15.10;99.90;;;;;;5083115;28;20569;-78
2022/06/28 02:20:10;;;;;;;4.07;1.50;;;15.00;99.90;;;;;;5083178;28;20524;-78
2022/06/28 02:22:35;;;;;;;2.77;1.10;;;15.00;99.90;;;;;;5086300;28;20469;-80
2022/06/28 02:25:01;;;;;;;3.30;1.33;;;14.90;99.90;;;;;;5084624;28;20443;-79
2022/06/28 02:27:27;;;;;;;3.63;1.17;;;14.90;99.90;;;;;;5086397;28;20215;-78
2022/06/28 02:29:53;;;;;;;2.33;1.37;;;14.90;99.90;;;;;;5088054;28;20237;-78
2022/06/28 02:32:19;;;;;;;14.27;1.23;;;14.80;99.90;;;;;;5089143;28;20231;-79
2022/06/28 02:40:22;;;;;;;2.23;1.10;;;14.80;99.90;;;;;;5082555;28;20473;-80
2022/06/28 02:42:48;;;;;;;2.33;1.33;;;14.70;99.90;;;;;;5083375;28;20549;-78
2022/06/28 02:45:14;;;;;;;8.40;1.70;;;14.70;99.90;;;;;;5086152;28;20541;-79
2022/06/28 02:47:39;;;;;;;2.10;1.27;;;14.70;99.90;;;;;;5087194;28;20965;-78
2022/06/28 02:50:06;;;;;;;3.30;1.40;;;14.70;99.90;;;;;;5087538;28;20203;-78
2022/06/28 02:52:31;;;;;;;2.27;1.47;;;14.70;99.90;;;;;;5087035;28;20204;-78
2022/06/28 02:54:57;;;;;;;3.50;1.70;;;14.60;99.90;;;;;;5085864;28;20438;-77
2022/06/28 02:57:23;;;;;;;2.03;1.07;;;14.50;99.90;;;;;;5086416;28;20214;-77
2022/06/28 02:59:48;;;;;;;3.03;1.77;;;14.40;99.90;;;;;;5085290;28;20247;-77
2022/06/28 03:02:14;;;;;;;5.00;1.30;;;14.50;99.90;;;;;;5080794;28;20204;-78
2022/06/28 03:04:39;;;;;;;9.43;1.47;;;14.50;99.90;;;;;;5083015;28;20177;-80
2022/06/28 03:07:05;;;;;;;5.30;1.23;;;14.50;99.90;;;;;;5081215;28;20197;-78
2022/06/28 03:09:31;;;;;;;2.27;1.13;;;14.60;99.90;;;;;;5079334;28;20197;-81
2022/06/28 03:11:56;;;;;;;3.33;1.30;;;14.60;99.90;;;;;;5084964;28;20242;-77
2022/06/28 03:14:22;;;;;;;1.97;1.00;;;14.70;99.90;;;;;;5078937;28;20177;-76
2022/06/28 03:16:47;;;;;;;3.83;1.23;;;14.70;99.90;;;;;;5080673;28;20215;-77
2022/06/28 03:19:13;;;;;;;2.53;1.37;;;14.70;99.90;;;;;;5078399;28;20185;-78
2022/06/28 03:21:39;;;;;;;3.50;1.03;;;14.70;99.90;;;;;;5086432;28;20213;-77
2022/06/28 03:24:04;;;;;;;3.43;1.43;;;14.70;99.90;;;;;;5090094;28;20191;-77
2022/06/28 03:26:30;;;;;;;1.63;0.93;;;14.70;99.90;;;;;;5088204;28;20191;-77
2022/06/28 03:28:55;;;;;;;2.20;1.30;;;14.80;99.90;;;;;;5084246;28;20675;-77
2022/06/28 03:31:21;;;;;;;3.00;1.30;;;14.80;99.90;;;;;;5087058;28;20676;-78
2022/06/28 03:33:47;;;;;;;2.07;1.20;;;14.80;99.90;;;;;;5088382;28;20176;-77
2022/06/28 03:36:12;;;;;;;2.13;1.17;;;14.70;99.90;;;;;;5087669;28;20719;-78
2022/06/28 03:38:38;;;;;;;3.90;2.17;;;14.80;99.90;;;;;;5085683;28;20189;-79
2022/06/28 03:41:03;;;;;;;4.70;1.20;;;14.80;99.90;;;;;;5087645;28;20234;-80
2022/06/28 03:43:29;;;;;;;2.30;1.07;;;14.80;99.90;;;;;;5085569;28;20210;-79
2022/06/28 03:45:55;;;;;;;3.20;1.60;;;14.90;99.90;;;;;;5086023;28;20192;-72
2022/06/28 03:48:20;;;;;;;8.23;2.03;;;14.90;99.90;;;;;;5083479;28;20195;-80
2022/06/28 03:50:46;;;;;;;20.80;1.90;;;15.00;99.90;;;;;;5083468;28;20202;-78
2022/06/28 03:53:12;;;;;;;1.90;1.20;;;15.00;99.90;;;;;;5084316;28;20300;-77
2022/06/28 03:55:37;;;;;;;2.57;1.20;;;15.10;99.90;;;;;;5082627;28;20208;-77
2022/06/28 03:58:03;;;;;;;3.60;1.70;;;15.00;99.90;;;;;;5087792;28;20219;-77
2022/06/28 04:00:29;;;;;;;2.40;1.27;;;15.00;99.90;;;;;;5085179;28;20246;-77
2022/06/28 04:02:54;;;;;;;6.77;1.70;;;15.10;99.90;;;;;;5078163;28;20204;-77
2022/06/28 04:05:20;;;;;;;3.83;1.27;;;15.10;99.90;;;;;;5078898;28;20188;-77
2022/06/28 04:07:46;;;;;;;3.73;1.00;;;15.20;99.90;;;;;;5085552;28;20184;-77
2022/06/28 04:10:11;;;;;;;2.77;1.40;;;15.20;99.90;;;;;;5086549;28;20231;-78
2022/06/28 04:12:37;;;;;;;3.77;1.77;;;15.20;99.90;;;;;;5080429;28;20233;-79
2022/06/28 04:15:03;;;;;;;3.23;1.73;;;15.20;99.90;;;;;;5077538;28;20200;-78
2022/06/28 04:17:28;;;;;;;2.00;1.37;;;15.30;99.90;;;;;;5076415;28;20192;-77
2022/06/28 04:19:54;;;;;;;5.17;1.33;;;15.30;99.90;;;;;;5083124;28;20207;-77
2022/06/28 04:22:20;;;;;;;3.90;1.87;;;15.30;99.90;;;;;;5084925;28;20246;-78
2022/06/28 04:24:45;;;;;;;2.30;1.30;;;15.30;99.90;;;;;;5079090;28;20211;-75
2022/06/28 04:27:11;;;;;;;3.10;1.50;;;15.30;99.90;;;;;;5078146;28;20193;-78
2022/06/28 04:29:36;;;;;;;3.23;1.10;;;15.40;99.90;;;;;;5080082;28;20192;-78
2022/06/28 04:32:02;;;;;;;3.20;1.50;;;15.40;99.90;;;;;;5076905;28;20290;-80
2022/06/28 04:34:28;;;;;;;2.23;1.07;;;15.40;99.90;;;;;;5077741;28;20315;-78
2022/06/28 04:36:54;;;;;;;3.93;1.20;;;15.40;99.90;;;;;;5074486;28;20203;-79
2022/06/28 04:39:20;;;;;;;5.20;1.80;;;15.40;99.90;;;;;;5080556;28;20192;-76
2022/06/28 04:41:45;;;;;;;9.07;1.80;;;15.40;99.90;;;;;;5077737;28;20451;-78
2022/06/28 04:44:11;;;;;;;21.30;1.70;;;15.50;99.90;;;;;;5075961;28;20563;-73
2022/06/28 04:46:37;;;;;;;5.30;1.73;;;15.50;99.90;;;;;;5074767;28;20672;-79
2022/06/28 04:49:03;;;;;;;1.97;1.00;;;15.50;99.90;;;;;;5080420;28;20786;-77
2022/06/28 04:51:28;;;;;;;2.40;1.30;;;15.50;99.90;;;;;;5079576;28;20203;-77
2022/06/28 04:53:54;;;;;;;10.17;1.80;;;15.60;99.90;;;;;;5077851;28;20450;-77
2022/06/28 04:56:21;;;;;;;3.73;1.80;;;15.60;99.90;;;;;;5080379;28;20286;-78
2022/06/28 04:58:46;;;;;;;4.00;1.83;;;15.60;99.90;;;;;;5072937;28;20185;-77
2022/06/28 05:01:12;;;;;;;17.43;1.87;;;15.60;99.90;;;;;;5081764;28;20524;-78
2022/06/28 05:03:38;;;;;;;3.43;1.90;;;15.60;99.90;;;;;;5079152;28;20280;-77
2022/06/28 05:06:04;;;;;;;2.33;1.40;;;15.60;99.90;;;;;;5080439;28;20275;-78
2022/06/28 05:08:30;;;;;;;3.00;1.67;;;15.60;99.90;;;;;;5087090;28;20525;-79
2022/06/28 05:10:55;;;;;;;5.40;1.70;;;15.60;99.90;;;;;;5080021;28;20208;-81
2022/06/28 05:13:21;;;;;;;3.90;1.70;;;15.50;99.90;;;;;;5083100;28;20675;-80
2022/06/28 05:15:47;;;;;;;4.30;1.60;;;15.50;99.90;;;;;;5078291;28;20671;-79
2022/06/28 05:18:12;;;;;;;4.60;2.03;;;15.40;99.90;;;;;;5081037;28;20273;-77
2022/06/28 05:20:38;;;;;;;2.40;1.40;;;15.40;99.90;;;;;;5086959;28;20232;-80
2022/06/28 05:23:04;;;;;;;4.30;2.40;;;15.30;99.90;;;;;;5083265;28;20235;-77
2022/06/28 05:25:29;;;;;;;8.20;2.00;;;15.40;99.90;;;;;;5087780;28;20259;-77
2022/06/28 05:27:55;;;;;;;6.03;2.20;;;15.40;99.90;;;;;;5091306;28;20189;-77
2022/06/28 05:30:20;;;;;;;3.30;1.97;;;15.40;99.90;;;;;;5088882;28;20195;-77
2022/06/28 05:32:46;;;;;;;20.80;2.20;;;15.40;99.90;;;;;;5092974;28;20200;-83
2022/06/28 05:35:12;;;;;;;5.37;2.37;;;15.50;99.90;;;;;;5104728;28;20237;-79
2022/06/28 05:37:37;;;;;;;3.30;1.90;;;15.60;99.90;;;;;;5106526;28;20180;-79
2022/06/28 05:40:03;;;;;;;3.00;1.70;;;15.70;99.90;;;;;;5098608;28;20215;-78
2022/06/28 05:42:29;;;;;;;13.83;2.47;;;15.80;99.90;;;;;;5113163;28;20220;-77
2022/06/28 05:44:55;;;;;;;23.03;2.53;;;15.90;99.90;;;;;;5099334;28;20427;-77
2022/06/28 05:47:20;;;;;;;4.43;2.20;;;15.90;99.90;;;;;;5086595;28;20208;-77
2022/06/28 05:49:46;;;;;;;2.83;1.77;;;16.00;99.90;;;;;;5072869;28;20223;-77
2022/06/28 05:52:11;;;;;;;5.77;2.17;;;16.20;99.90;;;;;;5074259;28;20201;-80
2022/06/28 05:54:37;;;;;;;4.37;2.43;;;16.30;99.90;;;;;;5088756;28;20237;-77
2022/06/28 05:57:03;;;;;;;5.50;2.60;;;16.40;99.90;;;;;;5074285;28;20184;-77
2022/06/28 05:59:29;;;;;;;6.90;3.90;;;16.40;99.90;;;;;;5069672;28;20228;-78
2022/06/28 06:01:55;;;;;;;5.50;3.83;;;16.50;99.90;;;;;;5068469;28;20296;-77
2022/06/28 06:04:24;;;;;;;6.77;2.87;;;16.60;99.90;;;;;;5088983;28;20421;-77
2022/06/28 06:06:50;;;;;;;4.63;3.10;;;16.60;99.90;;;;;;5090075;28;20462;-79
2022/06/28 06:09:16;;;;;;;9.23;3.57;;;16.60;99.90;;;;;;5076332;28;22004;-75
2022/06/28 06:11:42;;;;;;;9.83;3.37;;;16.60;99.90;;;;;;5080934;28;20274;-78
2022/06/28 06:14:08;;;;;;;6.37;3.47;;;16.60;99.90;;;;;;5071149;28;20212;-78
2022/06/28 06:16:33;;;;;;;5.20;3.20;;;16.60;99.90;;;;;;5074049;28;20469;-77
2022/06/28 06:18:59;;;;;;;4.93;2.77;;;16.70;99.90;;;;;;5071695;28;20264;-79
2022/06/28 06:21:24;;;;;;;6.00;3.50;;;16.80;99.90;;;;;;5084331;28;20213;-79
2022/06/28 06:23:50;;;;;;;5.70;4.10;;;16.90;99.90;;;;;;5076673;28;20181;-78
2022/06/28 06:26:16;;;;;;;6.20;2.83;;;17.10;99.90;;;;;;5078564;28;20196;-78
2022/06/28 06:28:41;;;;;;;15.60;3.37;;;17.10;99.90;;;;;;5091726;28;20173;-78
2022/06/28 06:31:09;;;;;;;5.40;3.10;;;17.30;99.90;;;;;;5080341;28;20181;-78
2022/06/28 06:33:35;;;;;;;5.13;3.47;;;17.60;99.90;;;;;;5071513;28;20178;-78
2022/06/28 06:36:01;;;;;;;8.90;4.63;;;17.90;99.90;;;;;;5077529;28;20438;-78
2022/06/28 06:38:27;;;;;;;11.77;5.53;;;17.90;99.90;;;;;;5077390;28;20426;-78
2022/06/28 06:40:55;;;;;;;7.30;4.87;;;17.80;99.90;;;;;;5070411;28;20463;-79
2022/06/28 06:43:21;;;;;;;9.80;5.57;;;17.70;99.90;;;;;;5071925;28;20201;-74
2022/06/28 06:45:46;;;;;;;8.00;4.73;;;17.70;99.90;;;;;;5074955;28;20488;-78
2022/06/28 06:48:12;;;;;;;9.00;4.70;;;17.60;99.90;;;;;;5073561;28;20476;-79
2022/06/28 06:50:37;;;;;;;9.53;5.10;;;17.50;99.90;;;;;;5071659;28;20191;-78
2022/06/28 06:53:03;;;;;;;16.60;5.50;;;17.40;99.90;;;;;;5074148;28;20211;-79
2022/06/28 06:55:29;;;;;;;8.70;5.47;;;17.30;99.90;;;;;;5089556;28;20676;-78
2022/06/28 06:57:55;;;;;;;8.40;5.67;;;17.20;99.90;;;;;;5071495;28;20625;-78
2022/06/28 07:00:20;;;;;;;9.97;6.00;;;17.00;99.90;;;;;;5071636;28;20205;-79
2022/06/28 07:02:47;;;;;;;13.63;6.83;;;16.90;99.90;;;;;;5070684;28;20225;-78
2022/06/28 07:05:13;;;;;;;10.20;6.73;;;16.90;99.90;;;;;;5086222;28;20173;-80
2022/06/28 07:07:39;;;;;;;10.63;6.60;;;16.70;99.90;;;;;;5088415;28;20424;-81
2022/06/28 07:10:05;;;;;;;12.20;6.43;;;16.70;99.90;;;;;;5086592;28;20274;-80
2022/06/28 07:12:30;;;;;;;10.00;5.50;;;16.50;99.90;;;;;;5092279;28;20426;-80
2022/06/28 07:14:57;;;;;;;6.40;4.70;;;16.60;99.90;;;;;;5081787;28;20793;-79
2022/06/28 07:17:22;;;;;;;8.40;4.70;;;16.60;99.90;;;;;;5086612;28;20255;-78
2022/06/28 07:19:48;;;;;;;7.57;5.27;;;16.70;99.90;;;;;;5086074;28;20459;-80
2022/06/28 07:22:13;;;;;;;6.10;4.37;;;16.80;99.90;;;;;;5084401;28;20258;-76
2022/06/28 07:24:39;;;;;;;12.13;5.40;;;17.00;99.90;;;;;;5103925;28;20247;-76
2022/06/28 07:27:05;;;;;;;6.80;4.10;;;17.10;99.90;;;;;;5097202;28;20183;-76
2022/06/28 07:29:31;;;;;;;13.10;4.93;;;17.20;99.90;;;;;;5093120;28;20233;-77
2022/06/28 07:31:56;;;;;;;7.37;4.30;;;17.40;99.90;;;;;;5088801;28;20208;-77
2022/06/28 07:34:23;;;;;;;9.80;4.33;;;17.60;99.90;;;;;;5097238;28;20176;-78
2022/06/28 07:36:48;;;;;;;10.43;4.33;;;17.90;99.90;;;;;;5091234;28;20593;-77
2022/06/28 07:39:14;;;;;;;9.77;3.97;;;18.00;99.90;;;;;;5108671;28;20402;-79
2022/06/28 07:41:40;;;;;;;5.90;3.60;;;18.10;99.90;;;;;;5106617;28;20287;-81
2022/06/28 07:44:06;;;;;;;7.60;4.13;;;18.10;99.90;;;;;;5110881;28;20209;-83
2022/06/28 07:46:32;;;;;;;6.00;3.67;;;18.20;99.90;;;;;;5112285;28;20212;-79
2022/06/28 07:48:58;;;;;;;5.90;3.90;;;18.50;99.90;;;;;;5102285;28;20445;-85
2022/06/28 07:54:08;;;;;;;13.60;3.47;;;19.30;99.90;;;;;;5088434;28;20270;-78
2022/06/28 07:56:34;;;;;;;6.80;3.27;;;19.40;99.90;;;;;;5086261;28;20532;-81
2022/06/28 07:59:00;;;;;;;5.93;3.80;;;19.30;99.90;;;;;;5088929;28;20181;-80
2022/06/28 08:01:26;;;;;;;8.63;3.30;;;19.10;99.90;;;;;;5090448;28;20223;-79
2022/06/28 08:03:52;;;;;;;5.10;2.63;;;19.10;99.90;;;;;;5091451;28;20220;-77
2022/06/28 08:06:19;;;;;;;5.00;2.70;;;19.10;99.90;;;;;;5082700;28;21706;-81
2022/06/28 08:08:44;;;;;;;5.47;2.70;;;19.00;99.90;;;;;;5083892;28;20213;-78
2022/06/28 08:11:11;;;;;;;5.10;3.07;;;18.80;99.90;;;;;;5077532;28;20489;-79
2022/06/28 08:13:37;;;;;;;4.90;2.90;;;18.60;99.90;;;;;;5088024;28;20195;-78
2022/06/28 08:16:04;;;;;;;6.63;3.63;;;18.90;99.90;;;;;;5090113;28;20439;-78
2022/06/28 08:18:30;;;;;;;5.23;3.20;;;18.90;99.90;;;;;;5087873;28;20271;-78
2022/06/28 08:20:56;;;;;;;4.90;2.77;;;18.90;99.90;;;;;;5088046;28;20473;-81
2022/06/28 08:23:21;;;;;;;4.30;2.70;;;19.20;99.90;;;;;;5082688;28;20200;-78
2022/06/28 08:25:47;;;;;;;7.53;2.73;;;19.20;99.90;;;;;;5083096;28;20189;-80
2022/06/28 08:28:14;;;;;;;8.50;2.30;;;19.40;99.90;;;;;;5083953;28;20264;-78
2022/06/28 08:30:41;;;;;;;6.00;3.50;;;19.50;99.90;;;;;;5087766;28;20185;-79
2022/06/28 08:33:07;;;;;;;4.80;3.30;;;19.50;99.90;;;;;;5088253;28;20458;-78
2022/06/28 08:35:34;;;;;;;6.10;3.27;;;19.60;99.90;;;;;;5090711;28;20453;-78
2022/06/28 08:38:00;;;;;;;6.80;3.57;;;19.80;99.90;;;;;;5094578;28;20426;-79
2022/06/28 08:40:27;;;;;;;4.27;2.40;;;21.00;99.90;;;;;;5091675;28;20512;-80
2022/06/28 08:42:54;;;;;;;3.47;2.23;;;21.60;99.90;;;;;;5092587;28;20957;-78
2022/06/28 08:45:21;;;;;;;5.53;2.90;;;21.80;99.90;;;;;;5084260;28;20456;-78
2022/06/28 08:47:53;;;;;;;5.50;3.00;;;21.60;99.90;;;;;;5090393;28;20425;-77
2022/06/28 08:50:28;;;;;;;4.73;2.70;;;21.40;99.90;;;;;;5084105;28;20461;-78
2022/06/28 08:52:55;;;;;;;4.50;2.30;;;20.70;99.90;;;;;;5082998;28;20446;-79
2022/06/28 08:55:22;;;;;;;5.70;2.80;;;20.30;99.90;;;;;;5078636;28;20444;-78
2022/06/28 08:57:48;;;;;;;6.07;3.17;;;20.70;99.90;;;;;;5089117;28;20460;-80
2022/06/28 09:00:14;;;;;;;4.93;2.50;;;21.40;99.90;;;;;;5081069;28;20454;-81
2022/06/28 09:02:39;;;;;;;4.87;3.10;;;21.30;99.90;;;;;;5086054;28;20207;-80
2022/06/28 09:05:06;;;;;;;3.07;1.93;;;21.20;99.90;;;;;;5088562;28;20180;-78
2022/06/28 09:07:32;;;;;;;9.17;2.60;;;21.30;99.90;;;;;;5066428;28;20856;-80
2022/06/28 09:09:57;;;;;;;6.63;3.13;;;21.10;99.90;;;;;;5087787;28;20466;-77
2022/06/28 09:12:23;;;;;;;3.90;2.33;;;20.90;99.90;;;;;;5086792;28;20267;-77
2022/06/28 09:14:49;;;;;;;4.07;2.30;;;20.90;99.90;;;;;;5087416;28;20661;-80
2022/06/28 09:17:25;;;;;;;10.13;2.70;;;20.80;99.90;;;;;;5086398;28;20608;-79
2022/06/28 09:19:56;;;;;;;15.87;2.30;;;21.00;99.90;;;;;;5085353;28;20249;-83
2022/06/28 09:22:33;;;;;;;7.13;2.90;;;21.40;99.90;;;;;;5082038;28;20451;-79
2022/06/28 09:25:00;;;;;;;3.37;2.17;;;21.30;99.90;;;;;;5080655;28;20410;-78
2022/06/28 09:27:34;;;;;;;5.00;2.63;;;21.70;99.90;;;;;;5080779;28;20422;-80
2022/06/28 09:30:02;;;;;;;3.63;2.40;;;21.30;99.90;;;;;;5081193;28;20449;-81
2022/06/28 09:32:34;;;;;;;4.50;2.47;;;21.30;99.90;;;;;;5081549;28;20434;-78
2022/06/28 09:35:03;;;;;;;4.80;2.60;;;21.10;99.90;;;;;;5091893;28;20410;-77
2022/06/28 09:37:59;;;;;;;7.30;2.60;;;20.90;99.90;;;;;;5081301;28;20454;-80
2022/06/28 09:40:28;;;;;;;5.13;2.57;;;21.00;99.90;;;;;;5072511;28;21190;-78
2022/06/28 09:43:09;;;;;;;9.50;2.40;;;20.80;99.90;;;;;;5074098;28;20485;-79
2022/06/28 09:45:39;;;;;;;3.23;2.23;;;20.90;99.90;;;;;;5076160;28;20464;-77
2022/06/28 09:48:06;;;;;;;3.50;2.00;;;21.30;99.90;;;;;;5073131;28;20911;-80
2022/06/28 09:50:34;;;;;;;4.30;2.10;;;21.50;99.90;;;;;;5081847;28;20525;-81
2022/06/28 09:53:00;;;;;;;8.73;2.83;;;21.70;99.90;;;;;;5080165;28;20471;-79
2022/06/28 09:55:29;;;;;;;6.00;2.50;;;22.20;99.90;;;;;;5076154;28;20504;-78
2022/06/28 09:57:55;;;;;;;2.97;2.03;;;22.50;98.90;;;;;;5073485;28;20945;-78
2022/06/28 10:00:24;;;;;;;3.47;1.70;;;22.00;99.90;;;;;;5082239;28;20469;-76
2022/06/28 10:02:50;;;;;;;4.47;2.87;;;21.60;99.90;;;;;;5093183;28;20284;-78
2022/06/28 10:05:17;;;;;;;4.70;2.27;;;21.30;99.90;;;;;;5087790;28;20406;-77
2022/06/28 10:07:44;;;;;;;5.00;2.27;;;21.20;99.90;;;;;;5085697;28;20413;-77
2022/06/28 10:10:10;;;;;;;5.00;2.17;;;21.60;99.90;;;;;;5083109;28;20445;-76
2022/06/28 10:15:23;;;;;;;2.40;1.50;;;22.40;99.30;;;;;;5081619;28;20416;-80
2022/06/28 10:18:07;;;;;;;3.30;2.00;;;22.70;97.90;;;;;;5074028;28;20422;-79
2022/06/28 10:20:36;;;;;;;4.17;2.43;;;23.10;98.20;;;;;;5071190;28;20830;-79
2022/06/28 10:23:33;;;;;;;5.70;2.17;;;23.20;98.30;;;;;;5071222;28;20440;-81
2022/06/28 10:26:02;;;;;;;3.53;2.23;;;23.20;98.90;;;;;;5074723;28;20481;-78
2022/06/28 10:28:37;;;;;;;4.20;1.93;;;23.50;97.50;;;;;;5080821;28;20446;-79
2022/06/28 10:31:21;;;;;;;3.20;2.10;;;23.20;98.50;;;;;;5080438;28;20417;-77
2022/06/28 10:33:52;;;;;;;4.30;1.80;;;23.20;98.40;;;;;;5077721;28;20479;-77
2022/06/28 10:36:20;;;;;;;3.83;2.20;;;23.30;97.90;;;;;;5079967;28;20430;-80
2022/06/28 10:39:01;;;;;;;3.10;1.73;;;23.50;96.70;;;;;;5084181;28;20563;-81
2022/06/28 10:41:49;;;;;;;3.60;2.30;;;23.20;97.10;;;;;;5087062;28;20499;-80
2022/06/28 10:44:43;;;;;;;4.60;2.07;;;23.20;97.50;;;;;;5092752;28;20409;-78
2022/06/28 10:47:14;;;;;;;3.63;2.10;;;22.90;98.10;;;;;;5085328;28;20930;-79
2022/06/28 10:49:45;;;;;;;3.93;2.03;;;22.60;97.20;;;;;;5084044;28;21229;-78
2022/06/28 10:52:14;;;;;;;3.80;1.53;;;22.80;97.00;;;;;;5082740;28;20761;-79
2022/06/28 10:54:51;;;;;;;2.50;1.50;;;22.80;98.00;;;;;;5086684;28;20427;-79
2022/06/28 10:57:28;;;;;;;3.17;1.90;;;22.70;98.60;;;;;;5082537;28;20437;-78
2022/06/28 10:59:59;;;;;;;2.70;1.73;;;23.00;97.20;;;;;;5092216;28;20457;-78
2022/06/28 11:02:46;;;;;;;2.43;1.30;;;23.20;95.40;;;;;;5089904;28;20434;-78
2022/06/28 11:05:11;;;;;;;2.33;1.23;;;23.10;96.30;;;;;;5083955;28;20409;-78
2022/06/28 11:07:38;;;;;;;3.53;1.67;;;23.10;96.30;;;;;;5091636;28;20774;-76
2022/06/28 11:10:09;;;;;;;2.00;1.20;;;23.10;97.10;;;;;;5087371;28;20205;-77
2022/06/28 11:12:38;;;;;;;2.73;1.50;;;23.40;96.50;;;;;;5078209;28;20525;-78
2022/06/28 11:15:12;;;;;;;2.40;1.30;;;23.30;96.60;;;;;;5092181;28;20809;-78
2022/06/28 11:17:43;;;;;;;3.07;1.67;;;23.50;96.00;;;;;;5083002;28;20425;-80
2022/06/28 11:20:13;;;;;;;4.90;1.70;;;23.50;95.40;;;;;;5087214;28;20511;-78
2022/06/28 11:22:43;;;;;;;8.67;2.27;;;23.10;96.50;;;;;;5081111;28;20442;-75
2022/06/28 11:25:11;;;;;;;2.70;1.53;;;23.30;96.80;;;;;;5086184;28;20419;-79
2022/06/28 11:27:58;;;;;;;5.87;1.17;;;22.90;96.70;;;;;;5084817;28;20421;-79
2022/06/28 11:30:29;;;;;;;2.67;1.50;;;22.70;96.90;;;;;;5090204;28;20457;-79
2022/06/28 11:32:56;;;;;;;3.10;1.57;;;22.90;96.50;;;;;;5080455;28;20422;-81
2022/06/28 11:35:23;;;;;;;2.10;1.20;;;23.00;95.70;;;;;;5075080;28;20411;-82
2022/06/28 11:37:49;;;;;;;2.67;1.40;;;22.60;96.80;;;;;;5082081;28;20430;-78
2022/06/28 11:40:16;;;;;;;2.93;1.70;;;22.70;96.50;;;;;;5091189;28;20503;-78
2022/06/28 11:42:43;;;;;;;3.03;1.27;;;22.80;96.40;;;;;;5078069;28;20222;-78
2022/06/28 11:45:11;;;;;;;3.40;1.40;;;22.80;96.50;;;;;;5087792;28;20907;-79
2022/06/28 11:47:44;;;;;;;2.93;1.60;;;23.00;96.40;;;;;;5091521;28;20426;-78
2022/06/28 11:50:16;;;;;;;2.47;1.07;;;22.90;97.00;;;;;;5091256;28;20448;-78
2022/06/28 11:52:54;;;;;;;4.60;1.33;;;23.10;96.70;;;;;;5088378;28;20478;-78
2022/06/28 11:55:42;;;;;;;2.60;1.33;;;23.00;96.40;;;;;;5094277;28;20497;-80
2022/06/28 11:58:17;;;;;;;2.30;1.20;;;23.30;95.70;;;;;;5092572;28;20425;-78
2022/06/28 12:01:08;;;;;;;2.03;1.17;;;23.30;96.20;;;;;;5089842;28;20491;-80
2022/06/28 12:03:57;;;;;;;2.57;1.10;;;23.40;96.00;;;;;;5086460;28;20440;-79
2022/06/28 12:06:31;;;;;;;3.73;0.93;;;23.50;96.20;;;;;;5080515;28;20433;-77
2022/06/28 12:09:09;;;;;;;2.10;1.27;;;23.80;94.90;;;;;;5091265;28;20409;-79
2022/06/28 12:11:47;;;;;;;2.00;1.10;;;23.60;95.20;;;;;;5093942;28;20871;-77
2022/06/28 12:14:19;;;;;;;2.03;1.13;;;23.30;95.90;;;;;;5092432;28;20441;-80
2022/06/28 12:16:58;;;;;;;2.90;1.27;;;23.30;95.20;;;;;;5087250;28;20444;-79
2022/06/28 12:19:28;;;;;;;2.93;1.07;;;22.80;96.20;;;;;;5086422;28;20486;-78
2022/06/28 12:22:07;;;;;;;1.77;0.87;;;22.80;97.10;;;;;;5090810;28;21013;-79
2022/06/28 12:24:44;;;;;;;2.43;1.07;;;23.20;95.10;;;;;;5086349;28;20411;-81
2022/06/28 12:27:15;;;;;;;2.00;1.10;;;22.80;97.10;;;;;;5091614;28;20406;-79
2022/06/28 12:29:42;;;;;;;4.60;1.50;;;22.80;96.30;;;;;;5096112;28;20455;-77
2022/06/28 12:32:08;;;;;;;2.40;1.50;;;22.70;96.70;;;;;;5076440;28;20446;-77
2022/06/28 12:34:34;;;;;;;2.50;1.50;;;23.00;96.70;;;;;;5083093;28;20529;-79
2022/06/28 12:36:59;;;;;;;5.23;1.90;;;23.10;95.90;;;;;;5088160;28;20520;-79
2022/06/28 12:39:25;;;;;;;3.70;1.37;;;23.20;95.80;;;;;;5083495;28;20566;-77
2022/06/28 12:41:51;;;;;;;3.83;1.33;;;23.00;97.00;;;;;;5090441;28;20208;-78
2022/06/28 12:44:18;;;;;;;1.83;1.03;;;22.90;96.70;;;;;;5086937;28;20197;-80
2022/06/28 12:46:44;;;;;;;2.73;1.50;;;23.00;96.40;;;;;;5085842;28;20173;-80
2022/06/28 12:49:10;;;;;;;2.13;1.17;;;22.90;96.00;;;;;;5086042;28;20465;-76
2022/06/28 12:51:36;;;;;;;2.40;1.57;;;22.80;96.40;;;;;;5102081;28;20437;-77
2022/06/28 12:54:02;;;;;;;2.30;1.40;;;22.50;97.00;;;;;;5086782;28;20181;-78
2022/06/28 12:56:28;;;;;;;3.03;1.40;;;22.50;98.00;;;;;;5103560;28;20418;-85
2022/06/28 12:58:57;;;;;;;2.57;1.23;;;22.60;97.80;;;;;;5112169;28;20251;-84
2022/06/28 13:01:23;;;;;;;6.70;1.33;;;22.40;97.20;;;;;;5114472;28;20192;-84